Weather at Victoria Harbour (Shoal Point) Heliport

Public forecast

Using degrees Celsius for public forecast. Weather courtesy of forecast.io.

Closest aviation weather report (METAR) to Victoria Harbour (Shoal Point) Heliport

Closest report is Victoria Harbour Seaplane Base, 0.6 nm (1.1 km) E.

2024/05/21 00:00 (retrieved 33 minutes ago)

CYWH 210000Z 25013KT 15SM FEW030 SCT240 15/04 A3019 RMK SC1CI3 SLP224

Closest aviation forecast (TAF) to Victoria Harbour (Shoal Point) Heliport

Closest forecast is Victoria Harbour Seaplane Base, 0.6 nm (1.1 km) E.

2024/05/20 21:00 (retrieved 4 hours ago)

TAF CYWH 202040Z 2021/2104 18008KT P6SM FEW030 BKN230 FM210000 22015KT P6SM BKN120 RMK NXT FCST BY 211400Z